sensor_id;sensor_type;location;lat;lon;timestamp;pressure;altitude;pressure_sealevel;temperature;humidity
41264;BME280;26998;48.714;9.414;2023-07-13T00:02:22;98929.34;;;20.36;100.00
41264;BME280;26998;48.714;9.414;2023-07-13T00:04:48;98927.50;;;20.41;100.00
41264;BME280;26998;48.714;9.414;2023-07-13T00:07:15;98887.03;;;20.40;100.00
41264;BME280;26998;48.714;9.414;2023-07-13T00:09:41;98866.41;;;20.39;100.00
41264;BME280;26998;48.714;9.414;2023-07-13T00:12:30;98816.22;;;20.46;100.00
41264;BME280;26998;48.714;9.414;2023-07-13T00:14:59;98807.88;;;20.58;100.00
41264;BME280;26998;48.714;9.414;2023-07-13T00:17:27;98854.03;;;20.53;100.00
41264;BME280;26998;48.714;9.414;2023-07-13T00:19:56;98859.19;;;20.55;100.00
41264;BME280;26998;48.714;9.414;2023-07-13T00:22:23;98839.88;;;20.51;100.00
41264;BME280;26998;48.714;9.414;2023-07-13T00:24:51;98851.25;;;20.48;100.00
41264;BME280;26998;48.714;9.414;2023-07-13T00:27:18;98818.13;;;20.46;100.00
41264;BME280;26998;48.714;9.414;2023-07-13T00:29:45;98822.16;;;20.43;100.00
41264;BME280;26998;48.714;9.414;2023-07-13T00:32:11;98814.03;;;20.43;100.00
41264;BME280;26998;48.714;9.414;2023-07-13T00:34:38;98805.88;;;20.43;100.00
41264;BME280;26998;48.714;9.414;2023-07-13T00:37:06;98803.16;;;20.38;100.00
41264;BME280;26998;48.714;9.414;2023-07-13T00:39:34;98792.84;;;20.40;100.00
41264;BME280;26998;48.714;9.414;2023-07-13T00:42:02;98774.34;;;20.37;100.00
41264;BME280;26998;48.714;9.414;2023-07-13T00:44:29;98790.41;;;20.39;100.00
41264;BME280;26998;48.714;9.414;2023-07-13T00:46:58;98751.06;;;20.46;100.00
41264;BME280;26998;48.714;9.414;2023-07-13T00:49:27;98745.34;;;20.43;100.00
41264;BME280;26998;48.714;9.414;2023-07-13T00:52:05;98744.81;;;20.41;100.00
41264;BME280;26998;48.714;9.414;2023-07-13T00:54:38;98761.91;;;20.41;100.00
41264;BME280;26998;48.714;9.414;2023-07-13T00:57:08;98767.84;;;20.33;100.00
41264;BME280;26998;48.714;9.414;2023-07-13T00:59:36;98759.69;;;20.33;100.00
41264;BME280;26998;48.714;9.414;2023-07-13T01:02:06;98753.72;;;20.36;100.00
41264;BME280;26998;48.714;9.414;2023-07-13T01:04:33;98754.53;;;20.32;100.00
41264;BME280;26998;48.714;9.414;2023-07-13T01:07:01;98742.56;;;20.27;100.00
41264;BME280;26998;48.714;9.414;2023-07-13T01:09:27;98740.91;;;20.16;100.00
41264;BME280;26998;48.714;9.414;2023-07-13T01:11:54;98743.59;;;20.16;100.00
41264;BME280;26998;48.714;9.414;2023-07-13T01:14:20;98732.69;;;20.06;100.00
41264;BME280;26998;48.714;9.414;2023-07-13T01:16:47;98737.84;;;20.07;100.00
41264;BME280;26998;48.714;9.414;2023-07-13T01:19:32;98727.25;;;20.01;100.00
41264;BME280;26998;48.714;9.414;2023-07-13T01:22:00;98732.38;;;19.97;100.00
41264;BME280;26998;48.714;9.414;2023-07-13T01:24:27;98725.53;;;19.90;100.00
41264;BME280;26998;48.714;9.414;2023-07-13T01:26:53;98730.38;;;19.82;100.00
41264;BME280;26998;48.714;9.414;2023-07-13T01:29:22;98774.53;;;19.78;100.00
41264;BME280;26998;48.714;9.414;2023-07-13T01:31:49;98806.44;;;19.66;100.00
41264;BME280;26998;48.714;9.414;2023-07-13T01:34:16;98822.38;;;19.62;100.00
41264;BME280;26998;48.714;9.414;2023-07-13T01:36:43;98829.38;;;19.58;100.00
41264;BME280;26998;48.714;9.414;2023-07-13T01:39:09;98804.34;;;19.46;100.00
41264;BME280;26998;48.714;9.414;2023-07-13T01:41:36;98824.78;;;19.31;100.00
41264;BME280;26998;48.714;9.414;2023-07-13T01:44:03;98823.13;;;19.25;100.00
41264;BME280;26998;48.714;9.414;2023-07-13T01:46:29;98819.09;;;19.06;100.00
41264;BME280;26998;48.714;9.414;2023-07-13T01:48:57;98817.47;;;19.05;100.00
41264;BME280;26998;48.714;9.414;2023-07-13T01:51:24;98802.84;;;19.06;100.00
41264;BME280;26998;48.714;9.414;2023-07-13T01:53:51;98801.63;;;18.91;100.00
41264;BME280;26998;48.714;9.414;2023-07-13T01:56:17;98805.91;;;18.87;100.00
41264;BME280;26998;48.714;9.414;2023-07-13T01:58:45;98792.94;;;18.89;100.00
41264;BME280;26998;48.714;9.414;2023-07-13T02:01:12;98806.06;;;18.76;100.00
41264;BME280;26998;48.714;9.414;2023-07-13T02:03:38;98806.13;;;18.64;100.00
41264;BME280;26998;48.714;9.414;2023-07-13T02:06:05;98813.38;;;18.58;100.00
41264;BME280;26998;48.714;9.414;2023-07-13T02:08:32;98823.38;;;18.58;100.00
41264;BME280;26998;48.714;9.414;2023-07-13T02:11:00;98833.81;;;18.49;100.00
41264;BME280;26998;48.714;9.414;2023-07-13T02:13:27;98837.78;;;18.41;100.00
41264;BME280;26998;48.714;9.414;2023-07-13T02:15:53;98837.13;;;18.34;100.00
41264;BME280;26998;48.714;9.414;2023-07-13T02:18:20;98842.53;;;18.34;100.00
41264;BME280;26998;48.714;9.414;2023-07-13T02:20:48;98837.88;;;18.30;100.00
41264;BME280;26998;48.714;9.414;2023-07-13T02:23:15;98858.22;;;18.32;100.00
41264;BME280;26998;48.714;9.414;2023-07-13T02:25:42;98843.44;;;18.40;100.00
41264;BME280;26998;48.714;9.414;2023-07-13T02:28:11;98842.84;;;18.38;100.00
41264;BME280;26998;48.714;9.414;2023-07-13T02:30:38;98839.41;;;18.42;100.00
41264;BME280;26998;48.714;9.414;2023-07-13T02:33:10;98836.72;;;18.42;100.00
41264;BME280;26998;48.714;9.414;2023-07-13T02:35:37;98838.03;;;18.40;100.00
41264;BME280;26998;48.714;9.414;2023-07-13T02:38:04;98842.81;;;18.33;100.00
41264;BME280;26998;48.714;9.414;2023-07-13T02:40:30;98838.78;;;18.35;100.00
41264;BME280;26998;48.714;9.414;2023-07-13T02:42:57;98843.25;;;18.46;100.00
41264;BME280;26998;48.714;9.414;2023-07-13T02:45:23;98845.47;;;18.50;100.00
41264;BME280;26998;48.714;9.414;2023-07-13T02:47:50;98826.00;;;18.53;100.00
41264;BME280;26998;48.714;9.414;2023-07-13T02:50:17;98848.97;;;18.50;100.00
41264;BME280;26998;48.714;9.414;2023-07-13T02:52:44;98845.72;;;18.48;100.00
41264;BME280;26998;48.714;9.414;2023-07-13T02:55:11;98834.72;;;18.55;100.00
41264;BME280;26998;48.714;9.414;2023-07-13T02:57:37;98844.56;;;18.44;100.00
41264;BME280;26998;48.714;9.414;2023-07-13T03:00:05;98862.63;;;18.38;100.00
41264;BME280;26998;48.714;9.414;2023-07-13T03:02:32;98851.94;;;18.49;100.00
41264;BME280;26998;48.714;9.414;2023-07-13T03:04:58;98833.75;;;18.66;100.00
41264;BME280;26998;48.714;9.414;2023-07-13T03:07:25;98855.06;;;18.57;100.00
41264;BME280;26998;48.714;9.414;2023-07-13T03:09:56;98862.47;;;18.45;100.00
41264;BME280;26998;48.714;9.414;2023-07-13T03:12:23;98888.47;;;18.29;100.00
41264;BME280;26998;48.714;9.414;2023-07-13T03:14:50;98890.00;;;18.25;100.00
41264;BME280;26998;48.714;9.414;2023-07-13T03:17:17;98902.22;;;18.28;100.00
41264;BME280;26998;48.714;9.414;2023-07-13T03:19:45;98906.81;;;18.27;100.00
41264;BME280;26998;48.714;9.414;2023-07-13T03:22:12;98913.22;;;18.21;100.00
41264;BME280;26998;48.714;9.414;2023-07-13T03:24:39;98923.38;;;18.31;100.00
41264;BME280;26998;48.714;9.414;2023-07-13T03:27:06;98921.59;;;18.36;100.00
41264;BME280;26998;48.714;9.414;2023-07-13T03:29:33;98944.78;;;18.32;100.00
41264;BME280;26998;48.714;9.414;2023-07-13T03:31:59;98954.81;;;18.32;100.00
41264;BME280;26998;48.714;9.414;2023-07-13T03:34:26;98952.16;;;18.20;100.00
41264;BME280;26998;48.714;9.414;2023-07-13T03:36:56;98975.28;;;18.28;100.00
41264;BME280;26998;48.714;9.414;2023-07-13T03:39:24;98960.94;;;18.27;100.00
41264;BME280;26998;48.714;9.414;2023-07-13T03:41:50;98946.50;;;18.21;100.00
41264;BME280;26998;48.714;9.414;2023-07-13T03:44:18;98959.13;;;18.16;100.00
41264;BME280;26998;48.714;9.414;2023-07-13T03:46:46;98959.22;;;18.21;100.00
41264;BME280;26998;48.714;9.414;2023-07-13T03:49:13;98934.53;;;18.17;100.00
41264;BME280;26998;48.714;9.414;2023-07-13T03:51:40;98949.03;;;18.11;100.00
41264;BME280;26998;48.714;9.414;2023-07-13T03:54:06;98938.81;;;18.13;100.00
41264;BME280;26998;48.714;9.414;2023-07-13T03:56:33;98960.19;;;18.15;100.00
41264;BME280;26998;48.714;9.414;2023-07-13T03:59:00;98952.81;;;18.10;100.00
41264;BME280;26998;48.714;9.414;2023-07-13T04:01:27;98957.41;;;18.27;100.00
41264;BME280;26998;48.714;9.414;2023-07-13T04:03:53;98949.63;;;18.30;100.00
41264;BME280;26998;48.714;9.414;2023-07-13T04:06:23;98938.31;;;18.33;100.00
41264;BME280;26998;48.714;9.414;2023-07-13T04:08:52;98932.31;;;18.31;100.00
41264;BME280;26998;48.714;9.414;2023-07-13T04:11:21;98939.72;;;18.36;100.00
41264;BME280;26998;48.714;9.414;2023-07-13T04:13:49;98940.84;;;18.40;100.00
41264;BME280;26998;48.714;9.414;2023-07-13T04:16:16;98953.47;;;18.34;100.00
41264;BME280;26998;48.714;9.414;2023-07-13T04:18:44;98940.75;;;18.35;100.00
41264;BME280;26998;48.714;9.414;2023-07-13T04:21:11;98944.03;;;18.37;100.00
41264;BME280;26998;48.714;9.414;2023-07-13T04:23:38;98951.03;;;18.33;100.00
41264;BME280;26998;48.714;9.414;2023-07-13T04:26:06;98958.66;;;18.36;100.00
41264;BME280;26998;48.714;9.414;2023-07-13T04:28:33;98958.50;;;18.26;100.00
41264;BME280;26998;48.714;9.414;2023-07-13T04:31:00;98982.19;;;18.35;100.00
41264;BME280;26998;48.714;9.414;2023-07-13T04:33:30;98996.69;;;18.29;100.00
41264;BME280;26998;48.714;9.414;2023-07-13T04:35:57;98983.66;;;18.43;100.00
41264;BME280;26998;48.714;9.414;2023-07-13T04:38:29;98981.09;;;18.36;100.00
41264;BME280;26998;48.714;9.414;2023-07-13T04:40:57;98977.31;;;18.37;100.00
41264;BME280;26998;48.714;9.414;2023-07-13T04:43:25;98998.16;;;18.37;100.00
41264;BME280;26998;48.714;9.414;2023-07-13T04:45:52;98996.94;;;18.44;100.00
41264;BME280;26998;48.714;9.414;2023-07-13T04:48:19;98977.41;;;18.42;100.00
41264;BME280;26998;48.714;9.414;2023-07-13T04:50:47;98998.09;;;18.49;100.00
41264;BME280;26998;48.714;9.414;2023-07-13T04:53:13;98995.47;;;18.54;100.00
41264;BME280;26998;48.714;9.414;2023-07-13T04:55:40;98991.59;;;18.50;100.00
41264;BME280;26998;48.714;9.414;2023-07-13T04:58:07;99002.50;;;18.55;100.00
41264;BME280;26998;48.714;9.414;2023-07-13T05:00:33;98984.38;;;18.55;100.00
41264;BME280;26998;48.714;9.414;2023-07-13T05:03:00;98959.31;;;18.60;100.00
41264;BME280;26998;48.714;9.414;2023-07-13T05:05:28;98944.28;;;18.52;100.00
41264;BME280;26998;48.714;9.414;2023-07-13T05:07:55;98936.34;;;18.45;100.00
41264;BME280;26998;48.714;9.414;2023-07-13T05:10:22;98946.75;;;18.54;100.00
41264;BME280;26998;48.714;9.414;2023-07-13T05:12:50;98962.31;;;18.46;100.00
41264;BME280;26998;48.714;9.414;2023-07-13T05:15:17;98960.78;;;18.51;100.00
41264;BME280;26998;48.714;9.414;2023-07-13T05:17:44;98956.81;;;18.75;100.00
41264;BME280;26998;48.714;9.414;2023-07-13T05:20:11;98968.88;;;18.67;100.00
41264;BME280;26998;48.714;9.414;2023-07-13T05:22:38;98970.28;;;18.53;100.00
41264;BME280;26998;48.714;9.414;2023-07-13T05:25:06;98990.94;;;18.59;100.00
41264;BME280;26998;48.714;9.414;2023-07-13T05:27:33;98972.50;;;18.73;100.00
41264;BME280;26998;48.714;9.414;2023-07-13T05:30:01;98937.59;;;18.93;100.00
41264;BME280;26998;48.714;9.414;2023-07-13T05:32:28;98931.53;;;18.86;100.00
41264;BME280;26998;48.714;9.414;2023-07-13T05:34:54;98938.28;;;19.06;100.00
41264;BME280;26998;48.714;9.414;2023-07-13T05:37:21;98904.78;;;19.12;100.00
41264;BME280;26998;48.714;9.414;2023-07-13T05:39:48;98915.41;;;19.19;100.00
41264;BME280;26998;48.714;9.414;2023-07-13T05:42:14;98921.34;;;19.15;100.00
41264;BME280;26998;48.714;9.414;2023-07-13T05:44:41;98921.31;;;19.37;100.00
41264;BME280;26998;48.714;9.414;2023-07-13T05:47:10;98927.41;;;19.23;100.00
41264;BME280;26998;48.714;9.414;2023-07-13T05:49:37;98942.63;;;19.51;100.00
41264;BME280;26998;48.714;9.414;2023-07-13T05:52:05;98944.97;;;19.64;100.00
41264;BME280;26998;48.714;9.414;2023-07-13T05:54:31;98952.34;;;19.69;100.00
41264;BME280;26998;48.714;9.414;2023-07-13T05:56:58;98926.97;;;19.58;100.00
41264;BME280;26998;48.714;9.414;2023-07-13T05:59:25;98926.59;;;19.71;100.00
41264;BME280;26998;48.714;9.414;2023-07-13T06:01:51;98889.25;;;19.51;100.00
41264;BME280;26998;48.714;9.414;2023-07-13T06:04:20;98868.44;;;19.57;100.00
41264;BME280;26998;48.714;9.414;2023-07-13T06:06:47;98873.63;;;19.64;100.00
41264;BME280;26998;48.714;9.414;2023-07-13T06:09:14;98879.63;;;19.38;100.00
41264;BME280;26998;48.714;9.414;2023-07-13T06:11:40;98884.91;;;19.50;100.00
41264;BME280;26998;48.714;9.414;2023-07-13T06:14:07;98859.38;;;19.46;100.00
41264;BME280;26998;48.714;9.414;2023-07-13T06:16:33;98862.47;;;19.87;100.00
41264;BME280;26998;48.714;9.414;2023-07-13T06:19:00;98853.19;;;20.52;100.00
41264;BME280;26998;48.714;9.414;2023-07-13T06:21:26;98856.28;;;20.71;100.00
41264;BME280;26998;48.714;9.414;2023-07-13T06:23:53;98861.31;;;20.47;100.00
41264;BME280;26998;48.714;9.414;2023-07-13T06:26:20;98860.44;;;20.89;100.00
41264;BME280;26998;48.714;9.414;2023-07-13T06:28:47;98851.69;;;21.45;93.24
41264;BME280;26998;48.714;9.414;2023-07-13T06:31:15;98857.94;;;22.53;88.09
41264;BME280;26998;48.714;9.414;2023-07-13T06:33:42;98865.88;;;22.24;88.49
41264;BME280;26998;48.714;9.414;2023-07-13T06:36:09;98868.69;;;23.04;82.78
41264;BME280;26998;48.714;9.414;2023-07-13T06:38:36;98861.25;;;23.69;77.18
41264;BME280;26998;48.714;9.414;2023-07-13T06:41:04;98866.38;;;24.10;77.42
41264;BME280;26998;48.714;9.414;2023-07-13T06:43:31;98870.44;;;24.18;74.71
41264;BME280;26998;48.714;9.414;2023-07-13T06:45:57;98874.53;;;24.15;76.29
41264;BME280;26998;48.714;9.414;2023-07-13T06:48:24;98876.44;;;24.73;72.24
41264;BME280;26998;48.714;9.414;2023-07-13T06:50:51;98874.34;;;24.07;74.10
41264;BME280;26998;48.714;9.414;2023-07-13T06:53:18;98873.09;;;24.23;73.30
41264;BME280;26998;48.714;9.414;2023-07-13T06:55:45;98874.00;;;23.79;75.91
41264;BME280;26998;48.714;9.414;2023-07-13T06:58:14;98877.91;;;23.68;73.64
41264;BME280;26998;48.714;9.414;2023-07-13T07:00:40;98871.44;;;23.48;79.58
41264;BME280;26998;48.714;9.414;2023-07-13T07:03:07;98879.41;;;22.65;80.19
41264;BME280;26998;48.714;9.414;2023-07-13T07:05:34;98882.47;;;22.32;85.37
41264;BME280;26998;48.714;9.414;2023-07-13T07:08:02;98885.72;;;22.65;83.26
41264;BME280;26998;48.714;9.414;2023-07-13T07:10:30;98873.22;;;22.08;83.59
41264;BME280;26998;48.714;9.414;2023-07-13T07:12:57;98871.59;;;22.12;85.02
41264;BME280;26998;48.714;9.414;2023-07-13T07:15:27;98877.31;;;22.26;86.77
41264;BME280;26998;48.714;9.414;2023-07-13T07:17:54;98878.38;;;21.89;86.39
41264;BME280;26998;48.714;9.414;2023-07-13T07:20:21;98876.22;;;21.76;89.68
41264;BME280;26998;48.714;9.414;2023-07-13T07:22:48;98876.25;;;22.17;83.98
41264;BME280;26998;48.714;9.414;2023-07-13T07:25:15;98882.47;;;22.27;74.21
41264;BME280;26998;48.714;9.414;2023-07-13T07:27:42;98887.63;;;21.73;74.41
41264;BME280;26998;48.714;9.414;2023-07-13T07:30:13;98887.38;;;22.20;71.85
41264;BME280;26998;48.714;9.414;2023-07-13T07:32:43;98887.91;;;22.07;71.57
41264;BME280;26998;48.714;9.414;2023-07-13T07:35:13;98883.59;;;22.21;68.19
41264;BME280;26998;48.714;9.414;2023-07-13T07:37:41;98883.75;;;22.71;69.27
41264;BME280;26998;48.714;9.414;2023-07-13T07:40:11;98885.22;;;22.32;66.91
41264;BME280;26998;48.714;9.414;2023-07-13T07:42:40;98886.56;;;22.40;68.36
41264;BME280;26998;48.714;9.414;2023-07-13T07:45:07;98890.59;;;22.63;66.22
41264;BME280;26998;48.714;9.414;2023-07-13T07:47:34;98899.59;;;22.58;61.45
41264;BME280;26998;48.714;9.414;2023-07-13T07:50:01;98902.28;;;22.84;62.48
41264;BME280;26998;48.714;9.414;2023-07-13T07:52:28;98894.91;;;22.95;63.22
41264;BME280;26998;48.714;9.414;2023-07-13T07:54:55;98884.41;;;23.27;59.00
41264;BME280;26998;48.714;9.414;2023-07-13T07:57:41;98884.09;;;23.34;57.24
41264;BME280;26998;48.714;9.414;2023-07-13T08:00:11;98895.41;;;23.02;57.41
41264;BME280;26998;48.714;9.414;2023-07-13T08:02:41;98898.97;;;23.02;56.99
41264;BME280;26998;48.714;9.414;2023-07-13T08:05:28;98900.09;;;22.96;55.58
41264;BME280;26998;48.714;9.414;2023-07-13T08:07:58;98905.13;;;23.23;56.15
41264;BME280;26998;48.714;9.414;2023-07-13T08:10:27;98901.75;;;23.47;54.39
41264;BME280;26998;48.714;9.414;2023-07-13T08:12:54;98899.28;;;23.50;52.48
41264;BME280;26998;48.714;9.414;2023-07-13T08:15:23;98902.56;;;23.42;53.85
41264;BME280;26998;48.714;9.414;2023-07-13T08:17:50;98894.88;;;23.55;51.47
41264;BME280;26998;48.714;9.414;2023-07-13T08:20:17;98895.72;;;23.55;51.30
41264;BME280;26998;48.714;9.414;2023-07-13T08:22:43;98896.88;;;23.88;51.31
41264;BME280;26998;48.714;9.414;2023-07-13T08:25:10;98899.19;;;23.61;46.51
41264;BME280;26998;48.714;9.414;2023-07-13T08:27:37;98896.84;;;23.49;46.58
41264;BME280;26998;48.714;9.414;2023-07-13T08:30:05;98895.50;;;24.20;47.06
41264;BME280;26998;48.714;9.414;2023-07-13T08:32:32;98903.59;;;24.01;43.53
41264;BME280;26998;48.714;9.414;2023-07-13T08:34:59;98904.41;;;24.02;43.37
41264;BME280;26998;48.714;9.414;2023-07-13T08:37:25;98911.13;;;23.80;44.53
41264;BME280;26998;48.714;9.414;2023-07-13T08:39:53;98909.34;;;23.55;44.78
41264;BME280;26998;48.714;9.414;2023-07-13T08:42:36;98904.09;;;23.69;45.28
41264;BME280;26998;48.714;9.414;2023-07-13T08:45:42;98908.13;;;23.77;42.78
41264;BME280;26998;48.714;9.414;2023-07-13T08:48:33;98903.44;;;24.22;42.12
41264;BME280;26998;48.714;9.414;2023-07-13T08:51:13;98910.84;;;23.82;43.13
41264;BME280;26998;48.714;9.414;2023-07-13T08:53:47;98905.69;;;23.80;42.77
41264;BME280;26998;48.714;9.414;2023-07-13T08:56:19;98908.91;;;23.87;43.46
41264;BME280;26998;48.714;9.414;2023-07-13T08:58:51;98905.28;;;23.92;43.80
41264;BME280;26998;48.714;9.414;2023-07-13T09:01:47;98913.09;;;24.09;43.95
41264;BME280;26998;48.714;9.414;2023-07-13T09:04:15;98910.53;;;24.23;44.51
41264;BME280;26998;48.714;9.414;2023-07-13T09:09:50;98909.00;;;24.40;43.05
41264;BME280;26998;48.714;9.414;2023-07-13T09:14:53;98916.53;;;24.54;42.65
41264;BME280;26998;48.714;9.414;2023-07-13T09:17:25;98906.28;;;24.40;42.51
41264;BME280;26998;48.714;9.414;2023-07-13T09:19:59;98910.56;;;24.52;43.53
41264;BME280;26998;48.714;9.414;2023-07-13T09:22:31;98912.66;;;24.31;42.79
41264;BME280;26998;48.714;9.414;2023-07-13T09:27:39;98911.09;;;24.19;42.97
41264;BME280;26998;48.714;9.414;2023-07-13T09:32:45;98898.06;;;24.70;43.30
41264;BME280;26998;48.714;9.414;2023-07-13T09:35:17;98905.03;;;24.28;43.22
41264;BME280;26998;48.714;9.414;2023-07-13T09:37:46;98908.28;;;23.95;45.14
41264;BME280;26998;48.714;9.414;2023-07-13T09:40:24;98907.94;;;23.63;46.06
41264;BME280;26998;48.714;9.414;2023-07-13T09:42:53;98911.06;;;23.41;45.95
41264;BME280;26998;48.714;9.414;2023-07-13T09:45:27;98911.25;;;23.55;45.58
41264;BME280;26998;48.714;9.414;2023-07-13T09:48:05;98901.97;;;24.00;46.99
41264;BME280;26998;48.714;9.414;2023-07-13T09:50:32;98895.19;;;24.27;44.14
41264;BME280;26998;48.714;9.414;2023-07-13T09:53:00;98900.84;;;24.06;44.45
41264;BME280;26998;48.714;9.414;2023-07-13T09:55:33;98908.09;;;24.21;43.35
41264;BME280;26998;48.714;9.414;2023-07-13T09:58:13;98905.53;;;24.88;41.85
41264;BME280;26998;48.714;9.414;2023-07-13T10:00:40;98898.38;;;25.16;42.39
41264;BME280;26998;48.714;9.414;2023-07-13T10:03:25;98905.53;;;25.12;40.68
41264;BME280;26998;48.714;9.414;2023-07-13T10:06:03;98917.06;;;25.33;41.24
41264;BME280;26998;48.714;9.414;2023-07-13T10:08:35;98913.41;;;25.19;41.54
41264;BME280;26998;48.714;9.414;2023-07-13T10:13:50;98908.13;;;25.46;39.80
41264;BME280;26998;48.714;9.414;2023-07-13T10:16:17;98905.97;;;26.00;39.65
41264;BME280;26998;48.714;9.414;2023-07-13T10:18:51;98915.16;;;26.42;38.98
41264;BME280;26998;48.714;9.414;2023-07-13T10:21:23;98916.09;;;26.18;38.32
41264;BME280;26998;48.714;9.414;2023-07-13T10:24:15;98912.59;;;25.99;37.58
41264;BME280;26998;48.714;9.414;2023-07-13T10:27:01;98905.31;;;26.08;38.46
41264;BME280;26998;48.714;9.414;2023-07-13T10:29:32;98907.34;;;26.16;37.57
41264;BME280;26998;48.714;9.414;2023-07-13T10:32:09;98905.03;;;25.91;37.94
41264;BME280;26998;48.714;9.414;2023-07-13T10:34:39;98899.09;;;25.65;38.72
41264;BME280;26998;48.714;9.414;2023-07-13T10:37:18;98906.75;;;25.01;40.23
41264;BME280;26998;48.714;9.414;2023-07-13T10:39:45;98900.88;;;24.88;41.76
41264;BME280;26998;48.714;9.414;2023-07-13T10:42:15;98899.47;;;25.39;40.60
41264;BME280;26998;48.714;9.414;2023-07-13T10:44:44;98899.56;;;25.91;40.37
41264;BME280;26998;48.714;9.414;2023-07-13T10:47:15;98892.34;;;25.38;39.55
41264;BME280;26998;48.714;9.414;2023-07-13T10:49:43;98892.06;;;25.96;40.05
41264;BME280;26998;48.714;9.414;2023-07-13T10:52:41;98896.06;;;25.85;38.42
41264;BME280;26998;48.714;9.414;2023-07-13T10:58:24;98893.47;;;25.56;38.72
41264;BME280;26998;48.714;9.414;2023-07-13T11:18:49;98875.50;;;25.69;39.81
41264;BME280;26998;48.714;9.414;2023-07-13T11:21:26;98871.47;;;26.18;39.22
41264;BME280;26998;48.714;9.414;2023-07-13T11:24:14;98870.31;;;26.05;38.73
41264;BME280;26998;48.714;9.414;2023-07-13T11:26:44;98864.16;;;25.94;39.39
41264;BME280;26998;48.714;9.414;2023-07-13T11:29:33;98872.13;;;26.42;38.21
41264;BME280;26998;48.714;9.414;2023-07-13T11:32:22;98861.88;;;26.48;38.79
41264;BME280;26998;48.714;9.414;2023-07-13T11:34:50;98863.53;;;26.49;37.68
41264;BME280;26998;48.714;9.414;2023-07-13T11:37:17;98869.13;;;26.71;37.37
41264;BME280;26998;48.714;9.414;2023-07-13T11:39:46;98864.13;;;26.13;36.67
41264;BME280;26998;48.714;9.414;2023-07-13T11:42:17;98859.28;;;25.91;37.14
41264;BME280;26998;48.714;9.414;2023-07-13T11:44:50;98856.34;;;25.88;37.62
41264;BME280;26998;48.714;9.414;2023-07-13T11:47:35;98859.19;;;25.83;37.21
41264;BME280;26998;48.714;9.414;2023-07-13T11:50:16;98855.69;;;26.10;38.06
41264;BME280;26998;48.714;9.414;2023-07-13T11:52:44;98868.91;;;25.89;37.11
41264;BME280;26998;48.714;9.414;2023-07-13T11:55:17;98863.66;;;26.25;37.58
41264;BME280;26998;48.714;9.414;2023-07-13T11:57:49;98857.03;;;26.12;36.85
41264;BME280;26998;48.714;9.414;2023-07-13T12:00:22;98854.22;;;26.17;36.42
41264;BME280;26998;48.714;9.414;2023-07-13T12:02:52;98866.31;;;26.77;35.81
41264;BME280;26998;48.714;9.414;2023-07-13T12:05:20;98863.44;;;26.82;35.81
41264;BME280;26998;48.714;9.414;2023-07-13T12:07:50;98854.66;;;26.38;35.74
41264;BME280;26998;48.714;9.414;2023-07-13T12:10:25;98852.47;;;26.95;36.39
41264;BME280;26998;48.714;9.414;2023-07-13T12:12:56;98854.50;;;27.04;35.06
41264;BME280;26998;48.714;9.414;2023-07-13T12:15:37;98862.44;;;26.78;35.86
41264;BME280;26998;48.714;9.414;2023-07-13T12:18:18;98860.13;;;26.38;36.86
41264;BME280;26998;48.714;9.414;2023-07-13T12:20:47;98856.41;;;26.48;37.83
41264;BME280;26998;48.714;9.414;2023-07-13T12:23:33;98865.00;;;26.41;37.20
41264;BME280;26998;48.714;9.414;2023-07-13T12:26:03;98865.19;;;26.31;36.85
41264;BME280;26998;48.714;9.414;2023-07-13T12:31:06;98869.25;;;26.34;36.39
41264;BME280;26998;48.714;9.414;2023-07-13T12:33:34;98851.84;;;26.57;37.29
41264;BME280;26998;48.714;9.414;2023-07-13T12:36:03;98855.69;;;25.96;37.24
41264;BME280;26998;48.714;9.414;2023-07-13T12:38:32;98854.69;;;26.06;37.17
41264;BME280;26998;48.714;9.414;2023-07-13T12:41:01;98858.25;;;26.20;37.04
41264;BME280;26998;48.714;9.414;2023-07-13T12:43:33;98855.44;;;26.25;37.03
41264;BME280;26998;48.714;9.414;2023-07-13T12:46:23;98851.47;;;26.64;34.68
41264;BME280;26998;48.714;9.414;2023-07-13T12:48:52;98855.50;;;26.66;34.91
41264;BME280;26998;48.714;9.414;2023-07-13T12:51:38;98855.81;;;26.79;35.22
41264;BME280;26998;48.714;9.414;2023-07-13T12:54:17;98855.91;;;26.60;35.16
41264;BME280;26998;48.714;9.414;2023-07-13T12:56:49;98859.31;;;26.38;35.60
41264;BME280;26998;48.714;9.414;2023-07-13T12:59:20;98861.66;;;26.44;35.02
41264;BME280;26998;48.714;9.414;2023-07-13T13:01:48;98857.84;;;26.59;36.15
41264;BME280;26998;48.714;9.414;2023-07-13T13:04:16;98856.53;;;26.84;35.72
41264;BME280;26998;48.714;9.414;2023-07-13T13:06:43;98857.97;;;26.82;35.68
41264;BME280;26998;48.714;9.414;2023-07-13T13:09:15;98849.72;;;27.23;34.70
41264;BME280;26998;48.714;9.414;2023-07-13T13:11:42;98842.13;;;27.20;35.99
41264;BME280;26998;48.714;9.414;2023-07-13T13:14:08;98839.50;;;26.74;35.28
41264;BME280;26998;48.714;9.414;2023-07-13T13:16:44;98845.88;;;26.55;35.15
41264;BME280;26998;48.714;9.414;2023-07-13T13:19:15;98852.16;;;26.69;34.89
41264;BME280;26998;48.714;9.414;2023-07-13T13:21:44;98836.03;;;27.23;34.79
41264;BME280;26998;48.714;9.414;2023-07-13T13:24:17;98830.63;;;26.90;33.94
41264;BME280;26998;48.714;9.414;2023-07-13T13:26:45;98852.06;;;27.16;34.32
41264;BME280;26998;48.714;9.414;2023-07-13T13:29:22;98852.38;;;27.14;33.80
41264;BME280;26998;48.714;9.414;2023-07-13T13:31:50;98842.53;;;26.86;34.32
41264;BME280;26998;48.714;9.414;2023-07-13T13:34:18;98848.69;;;26.03;36.06
41264;BME280;26998;48.714;9.414;2023-07-13T13:36:46;98843.56;;;25.64;36.65
41264;BME280;26998;48.714;9.414;2023-07-13T13:39:24;98835.78;;;25.90;36.38
41264;BME280;26998;48.714;9.414;2023-07-13T13:41:52;98831.84;;;26.57;35.97
41264;BME280;26998;48.714;9.414;2023-07-13T13:44:21;98829.66;;;26.12;36.25
41264;BME280;26998;48.714;9.414;2023-07-13T13:46:50;98831.63;;;26.39;36.17